sensor_id;sensor_type;location;lat;lon;timestamp;temperature;humidity
37956;DHT22;23776;51.592;7.180;2023-11-21T00:00:14;7.90;1.00
37956;DHT22;23776;51.592;7.180;2023-11-21T00:02:40;8.00;1.00
37956;DHT22;23776;51.592;7.180;2023-11-21T00:05:08;8.00;1.00
37956;DHT22;23776;51.592;7.180;2023-11-21T00:07:35;8.00;1.00
37956;DHT22;23776;51.592;7.180;2023-11-21T00:10:01;8.00;1.00
37956;DHT22;23776;51.592;7.180;2023-11-21T00:12:26;8.10;1.00
37956;DHT22;23776;51.592;7.180;2023-11-21T00:14:54;8.20;1.00
37956;DHT22;23776;51.592;7.180;2023-11-21T00:17:19;8.90;1.00
37956;DHT22;23776;51.592;7.180;2023-11-21T00:19:45;8.10;1.00
37956;DHT22;23776;51.592;7.180;2023-11-21T00:22:11;8.30;1.00
37956;DHT22;23776;51.592;7.180;2023-11-21T00:24:36;8.10;1.00
37956;DHT22;23776;51.592;7.180;2023-11-21T00:27:02;8.10;1.00
37956;DHT22;23776;51.592;7.180;2023-11-21T00:29:28;8.10;1.00
37956;DHT22;23776;51.592;7.180;2023-11-21T00:31:54;8.00;1.00
37956;DHT22;23776;51.592;7.180;2023-11-21T00:34:19;8.10;1.00
37956;DHT22;23776;51.592;7.180;2023-11-21T00:36:45;8.10;1.00
37956;DHT22;23776;51.592;7.180;2023-11-21T00:39:10;11.20;1.00
37956;DHT22;23776;51.592;7.180;2023-11-21T00:41:37;8.10;1.00
37956;DHT22;23776;51.592;7.180;2023-11-21T00:44:03;8.20;1.00
37956;DHT22;23776;51.592;7.180;2023-11-21T00:46:29;8.20;1.00
37956;DHT22;23776;51.592;7.180;2023-11-21T00:48:55;8.30;1.00
37956;DHT22;23776;51.592;7.180;2023-11-21T00:51:21;8.30;1.00
37956;DHT22;23776;51.592;7.180;2023-11-21T00:53:47;8.40;1.00
37956;DHT22;23776;51.592;7.180;2023-11-21T00:56:13;8.50;1.00
37956;DHT22;23776;51.592;7.180;2023-11-21T00:58:39;8.50;1.00
37956;DHT22;23776;51.592;7.180;2023-11-21T01:01:09;9.90;1.00
37956;DHT22;23776;51.592;7.180;2023-11-21T01:03:34;8.60;1.00
37956;DHT22;23776;51.592;7.180;2023-11-21T01:06:00;8.50;1.00
37956;DHT22;23776;51.592;7.180;2023-11-21T01:08:25;8.60;1.00
37956;DHT22;23776;51.592;7.180;2023-11-21T01:10:51;8.60;1.00
37956;DHT22;23776;51.592;7.180;2023-11-21T01:13:17;8.60;1.00
37956;DHT22;23776;51.592;7.180;2023-11-21T01:15:42;8.60;1.00
37956;DHT22;23776;51.592;7.180;2023-11-21T01:18:08;8.60;1.00
37956;DHT22;23776;51.592;7.180;2023-11-21T01:20:36;8.70;1.00
37956;DHT22;23776;51.592;7.180;2023-11-21T01:23:02;8.70;1.00
37956;DHT22;23776;51.592;7.180;2023-11-21T01:25:28;8.80;1.00
37956;DHT22;23776;51.592;7.180;2023-11-21T01:27:53;10.50;1.00
37956;DHT22;23776;51.592;7.180;2023-11-21T01:30:19;8.70;1.00
37956;DHT22;23776;51.592;7.180;2023-11-21T01:32:44;8.70;1.00
37956;DHT22;23776;51.592;7.180;2023-11-21T01:35:10;8.60;1.00
37956;DHT22;23776;51.592;7.180;2023-11-21T01:37:37;8.60;1.00
37956;DHT22;23776;51.592;7.180;2023-11-21T01:40:03;8.60;1.00
37956;DHT22;23776;51.592;7.180;2023-11-21T01:42:33;8.60;1.00
37956;DHT22;23776;51.592;7.180;2023-11-21T01:45:00;8.60;1.00
37956;DHT22;23776;51.592;7.180;2023-11-21T01:47:31;8.70;1.00
37956;DHT22;23776;51.592;7.180;2023-11-21T01:49:58;8.60;1.00
37956;DHT22;23776;51.592;7.180;2023-11-21T01:52:24;8.60;1.00
37956;DHT22;23776;51.592;7.180;2023-11-21T01:54:50;8.60;1.00
37956;DHT22;23776;51.592;7.180;2023-11-21T01:57:15;8.60;1.00
37956;DHT22;23776;51.592;7.180;2023-11-21T01:59:41;8.50;1.00
37956;DHT22;23776;51.592;7.180;2023-11-21T02:02:08;8.50;1.00
37956;DHT22;23776;51.592;7.180;2023-11-21T02:04:35;8.50;1.00
37956;DHT22;23776;51.592;7.180;2023-11-21T02:07:02;8.50;1.00
37956;DHT22;23776;51.592;7.180;2023-11-21T02:09:32;8.40;1.00
37956;DHT22;23776;51.592;7.180;2023-11-21T02:11:59;8.50;1.00
37956;DHT22;23776;51.592;7.180;2023-11-21T02:14:26;8.30;1.00
37956;DHT22;23776;51.592;7.180;2023-11-21T02:16:53;8.50;1.00
37956;DHT22;23776;51.592;7.180;2023-11-21T02:19:20;8.40;1.00
37956;DHT22;23776;51.592;7.180;2023-11-21T02:21:52;8.40;1.00
37956;DHT22;23776;51.592;7.180;2023-11-21T02:24:19;8.50;1.00
37956;DHT22;23776;51.592;7.180;2023-11-21T02:26:45;8.50;1.00
37956;DHT22;23776;51.592;7.180;2023-11-21T02:29:11;8.70;1.00
37956;DHT22;23776;51.592;7.180;2023-11-21T02:31:38;8.40;1.00
37956;DHT22;23776;51.592;7.180;2023-11-21T02:34:14;8.30;1.00
37956;DHT22;23776;51.592;7.180;2023-11-21T02:36:39;8.40;1.00
37956;DHT22;23776;51.592;7.180;2023-11-21T02:39:05;8.20;1.00
37956;DHT22;23776;51.592;7.180;2023-11-21T02:41:32;8.10;1.00
37956;DHT22;23776;51.592;7.180;2023-11-21T02:43:58;8.10;1.00
37956;DHT22;23776;51.592;7.180;2023-11-21T02:46:23;8.10;1.00
37956;DHT22;23776;51.592;7.180;2023-11-21T02:48:49;8.10;1.00
37956;DHT22;23776;51.592;7.180;2023-11-21T02:51:16;8.10;1.00
37956;DHT22;23776;51.592;7.180;2023-11-21T02:53:42;8.00;1.00
37956;DHT22;23776;51.592;7.180;2023-11-21T02:56:07;8.00;1.00
37956;DHT22;23776;51.592;7.180;2023-11-21T02:58:33;8.10;1.00
37956;DHT22;23776;51.592;7.180;2023-11-21T03:00:59;8.10;1.00
37956;DHT22;23776;51.592;7.180;2023-11-21T03:03:24;8.10;1.00
37956;DHT22;23776;51.592;7.180;2023-11-21T03:05:50;8.10;1.00
37956;DHT22;23776;51.592;7.180;2023-11-21T03:08:16;8.10;1.00
37956;DHT22;23776;51.592;7.180;2023-11-21T03:10:41;8.20;1.00
37956;DHT22;23776;51.592;7.180;2023-11-21T03:13:07;8.20;1.00
37956;DHT22;23776;51.592;7.180;2023-11-21T03:15:33;8.20;1.00
37956;DHT22;23776;51.592;7.180;2023-11-21T03:18:00;8.30;1.00
37956;DHT22;23776;51.592;7.180;2023-11-21T03:20:26;8.30;1.00
37956;DHT22;23776;51.592;7.180;2023-11-21T03:22:51;8.30;1.00
37956;DHT22;23776;51.592;7.180;2023-11-21T03:25:17;8.30;1.00
37956;DHT22;23776;51.592;7.180;2023-11-21T03:27:42;8.90;1.00
37956;DHT22;23776;51.592;7.180;2023-11-21T03:30:10;8.40;1.00
37956;DHT22;23776;51.592;7.180;2023-11-21T03:32:36;8.30;1.00
37956;DHT22;23776;51.592;7.180;2023-11-21T03:35:02;8.30;1.00
37956;DHT22;23776;51.592;7.180;2023-11-21T03:37:29;8.30;1.00
37956;DHT22;23776;51.592;7.180;2023-11-21T03:39:55;8.30;1.00
37956;DHT22;23776;51.592;7.180;2023-11-21T03:42:21;8.30;1.00
37956;DHT22;23776;51.592;7.180;2023-11-21T03:44:47;8.30;1.00
37956;DHT22;23776;51.592;7.180;2023-11-21T03:47:12;8.30;1.00
37956;DHT22;23776;51.592;7.180;2023-11-21T03:49:38;8.30;1.00
37956;DHT22;23776;51.592;7.180;2023-11-21T03:52:04;8.30;1.00
37956;DHT22;23776;51.592;7.180;2023-11-21T03:54:30;8.30;1.00
37956;DHT22;23776;51.592;7.180;2023-11-21T03:56:55;8.30;1.00
37956;DHT22;23776;51.592;7.180;2023-11-21T03:59:21;8.30;1.00
37956;DHT22;23776;51.592;7.180;2023-11-21T04:01:50;8.30;1.00
37956;DHT22;23776;51.592;7.180;2023-11-21T04:04:15;8.30;1.00
37956;DHT22;23776;51.592;7.180;2023-11-21T04:06:41;8.30;1.00
37956;DHT22;23776;51.592;7.180;2023-11-21T04:09:07;8.30;1.00
37956;DHT22;23776;51.592;7.180;2023-11-21T04:11:32;8.40;1.00
37956;DHT22;23776;51.592;7.180;2023-11-21T04:13:58;8.30;1.00
37956;DHT22;23776;51.592;7.180;2023-11-21T04:16:24;8.30;1.00
37956;DHT22;23776;51.592;7.180;2023-11-21T04:18:50;8.20;1.00
37956;DHT22;23776;51.592;7.180;2023-11-21T04:21:16;8.20;1.00
37956;DHT22;23776;51.592;7.180;2023-11-21T04:23:42;8.10;1.00
37956;DHT22;23776;51.592;7.180;2023-11-21T04:26:07;8.10;1.00
37956;DHT22;23776;51.592;7.180;2023-11-21T04:28:33;8.00;1.00
37956;DHT22;23776;51.592;7.180;2023-11-21T04:31:00;8.00;1.00
37956;DHT22;23776;51.592;7.180;2023-11-21T04:33:25;8.00;1.00
37956;DHT22;23776;51.592;7.180;2023-11-21T04:35:51;7.90;1.00
37956;DHT22;23776;51.592;7.180;2023-11-21T04:38:17;7.90;1.00
37956;DHT22;23776;51.592;7.180;2023-11-21T04:40:42;7.80;1.00
37956;DHT22;23776;51.592;7.180;2023-11-21T04:43:08;7.90;1.00
37956;DHT22;23776;51.592;7.180;2023-11-21T04:45:34;7.90;1.00
37956;DHT22;23776;51.592;7.180;2023-11-21T04:48:00;8.00;1.00
37956;DHT22;23776;51.592;7.180;2023-11-21T04:50:25;8.00;1.00
37956;DHT22;23776;51.592;7.180;2023-11-21T04:52:54;8.10;1.00
37956;DHT22;23776;51.592;7.180;2023-11-21T04:55:19;8.10;1.00
37956;DHT22;23776;51.592;7.180;2023-11-21T04:57:45;8.10;1.00
37956;DHT22;23776;51.592;7.180;2023-11-21T05:00:12;8.10;1.00
37956;DHT22;23776;51.592;7.180;2023-11-21T05:02:38;8.20;1.00
37956;DHT22;23776;51.592;7.180;2023-11-21T05:05:04;8.10;1.00
37956;DHT22;23776;51.592;7.180;2023-11-21T05:07:32;8.20;1.00
37956;DHT22;23776;51.592;7.180;2023-11-21T05:09:57;8.30;1.00
37956;DHT22;23776;51.592;7.180;2023-11-21T05:12:25;8.30;1.00
37956;DHT22;23776;51.592;7.180;2023-11-21T05:14:51;8.30;1.00
37956;DHT22;23776;51.592;7.180;2023-11-21T05:17:16;8.30;1.00
37956;DHT22;23776;51.592;7.180;2023-11-21T05:19:42;8.30;1.00
37956;DHT22;23776;51.592;7.180;2023-11-21T05:22:10;8.50;1.00
37956;DHT22;23776;51.592;7.180;2023-11-21T05:24:37;8.30;1.00
37956;DHT22;23776;51.592;7.180;2023-11-21T05:27:04;8.30;1.00
37956;DHT22;23776;51.592;7.180;2023-11-21T05:29:30;8.30;1.00
37956;DHT22;23776;51.592;7.180;2023-11-21T05:31:55;8.20;1.00
37956;DHT22;23776;51.592;7.180;2023-11-21T05:34:21;8.30;1.00
37956;DHT22;23776;51.592;7.180;2023-11-21T05:36:50;8.30;1.00
37956;DHT22;23776;51.592;7.180;2023-11-21T05:39:15;8.30;1.00
37956;DHT22;23776;51.592;7.180;2023-11-21T05:41:43;8.60;1.00
37956;DHT22;23776;51.592;7.180;2023-11-21T05:44:08;8.30;1.00
37956;DHT22;23776;51.592;7.180;2023-11-21T05:46:34;8.30;1.00
37956;DHT22;23776;51.592;7.180;2023-11-21T05:49:00;8.20;1.00
37956;DHT22;23776;51.592;7.180;2023-11-21T05:51:25;8.30;1.00
37956;DHT22;23776;51.592;7.180;2023-11-21T05:53:51;8.30;1.00
37956;DHT22;23776;51.592;7.180;2023-11-21T05:56:17;8.10;1.00
37956;DHT22;23776;51.592;7.180;2023-11-21T05:58:43;8.50;1.00
37956;DHT22;23776;51.592;7.180;2023-11-21T06:01:09;8.50;1.00
37956;DHT22;23776;51.592;7.180;2023-11-21T06:03:38;8.50;1.00
37956;DHT22;23776;51.592;7.180;2023-11-21T06:06:04;8.50;1.00
37956;DHT22;23776;51.592;7.180;2023-11-21T06:08:30;8.50;1.00
37956;DHT22;23776;51.592;7.180;2023-11-21T06:10:55;8.50;1.00
37956;DHT22;23776;51.592;7.180;2023-11-21T06:13:21;8.60;1.00
37956;DHT22;23776;51.592;7.180;2023-11-21T06:15:50;8.50;1.00
37956;DHT22;23776;51.592;7.180;2023-11-21T06:18:16;8.50;1.00
37956;DHT22;23776;51.592;7.180;2023-11-21T06:20:45;9.70;1.00
37956;DHT22;23776;51.592;7.180;2023-11-21T06:23:11;8.50;1.00
37956;DHT22;23776;51.592;7.180;2023-11-21T06:25:36;8.40;1.00
37956;DHT22;23776;51.592;7.180;2023-11-21T06:28:02;9.00;1.00
37956;DHT22;23776;51.592;7.180;2023-11-21T06:30:28;8.40;1.00
37956;DHT22;23776;51.592;7.180;2023-11-21T06:32:54;8.60;1.00
37956;DHT22;23776;51.592;7.180;2023-11-21T06:35:20;8.50;1.00
37956;DHT22;23776;51.592;7.180;2023-11-21T06:37:46;8.50;1.00
37956;DHT22;23776;51.592;7.180;2023-11-21T06:40:17;8.60;1.00
37956;DHT22;23776;51.592;7.180;2023-11-21T06:42:43;8.50;1.00
37956;DHT22;23776;51.592;7.180;2023-11-21T06:45:10;8.50;1.00
37956;DHT22;23776;51.592;7.180;2023-11-21T06:47:36;8.50;1.00
37956;DHT22;23776;51.592;7.180;2023-11-21T06:50:03;8.50;1.00
37956;DHT22;23776;51.592;7.180;2023-11-21T06:52:29;8.60;1.00
37956;DHT22;23776;51.592;7.180;2023-11-21T06:54:55;8.60;1.00
37956;DHT22;23776;51.592;7.180;2023-11-21T06:57:23;8.60;1.00
37956;DHT22;23776;51.592;7.180;2023-11-21T06:59:48;8.60;1.00
37956;DHT22;23776;51.592;7.180;2023-11-21T07:02:16;8.60;1.00
37956;DHT22;23776;51.592;7.180;2023-11-21T07:04:44;8.60;1.00
37956;DHT22;23776;51.592;7.180;2023-11-21T07:07:10;8.60;1.00
37956;DHT22;23776;51.592;7.180;2023-11-21T07:09:36;8.50;1.00
37956;DHT22;23776;51.592;7.180;2023-11-21T07:12:01;8.40;1.00
37956;DHT22;23776;51.592;7.180;2023-11-21T07:14:29;8.40;1.00
37956;DHT22;23776;51.592;7.180;2023-11-21T07:16:54;8.50;1.00
37956;DHT22;23776;51.592;7.180;2023-11-21T07:19:20;8.60;1.00
37956;DHT22;23776;51.592;7.180;2023-11-21T07:21:47;8.50;1.00
37956;DHT22;23776;51.592;7.180;2023-11-21T07:24:16;8.60;1.00
37956;DHT22;23776;51.592;7.180;2023-11-21T07:26:41;8.50;1.00
37956;DHT22;23776;51.592;7.180;2023-11-21T07:29:07;8.50;1.00
37956;DHT22;23776;51.592;7.180;2023-11-21T07:31:32;8.50;1.00
37956;DHT22;23776;51.592;7.180;2023-11-21T07:34:01;8.50;1.00
37956;DHT22;23776;51.592;7.180;2023-11-21T07:36:27;8.50;1.00
37956;DHT22;23776;51.592;7.180;2023-11-21T07:38:53;8.50;1.00
37956;DHT22;23776;51.592;7.180;2023-11-21T07:41:18;8.50;1.00
37956;DHT22;23776;51.592;7.180;2023-11-21T07:43:45;8.60;1.00
37956;DHT22;23776;51.592;7.180;2023-11-21T07:46:12;8.60;1.00
37956;DHT22;23776;51.592;7.180;2023-11-21T07:48:39;8.60;1.00
37956;DHT22;23776;51.592;7.180;2023-11-21T07:51:05;8.60;1.00
37956;DHT22;23776;51.592;7.180;2023-11-21T07:53:30;8.70;1.00
37956;DHT22;23776;51.592;7.180;2023-11-21T07:55:57;8.70;1.00
37956;DHT22;23776;51.592;7.180;2023-11-21T07:58:23;8.70;1.00
37956;DHT22;23776;51.592;7.180;2023-11-21T08:00:49;8.70;1.00
37956;DHT22;23776;51.592;7.180;2023-11-21T08:03:15;8.80;1.00
37956;DHT22;23776;51.592;7.180;2023-11-21T08:05:41;8.80;1.00
37956;DHT22;23776;51.592;7.180;2023-11-21T08:08:07;8.80;1.00
37956;DHT22;23776;51.592;7.180;2023-11-21T08:10:33;9.10;1.00
37956;DHT22;23776;51.592;7.180;2023-11-21T08:12:58;8.80;1.00
37956;DHT22;23776;51.592;7.180;2023-11-21T08:15:24;8.90;1.00
37956;DHT22;23776;51.592;7.180;2023-11-21T08:17:50;9.00;1.00
37956;DHT22;23776;51.592;7.180;2023-11-21T08:20:16;8.90;1.00
37956;DHT22;23776;51.592;7.180;2023-11-21T08:22:44;9.00;1.00
37956;DHT22;23776;51.592;7.180;2023-11-21T08:25:10;9.00;1.00
37956;DHT22;23776;51.592;7.180;2023-11-21T08:27:42;9.10;1.00
37956;DHT22;23776;51.592;7.180;2023-11-21T08:30:07;9.20;1.00
37956;DHT22;23776;51.592;7.180;2023-11-21T08:32:33;9.10;1.00
37956;DHT22;23776;51.592;7.180;2023-11-21T08:35:00;9.20;1.00
37956;DHT22;23776;51.592;7.180;2023-11-21T08:37:26;9.20;1.00
37956;DHT22;23776;51.592;7.180;2023-11-21T08:39:52;9.30;1.00
37956;DHT22;23776;51.592;7.180;2023-11-21T08:42:19;9.20;1.00
37956;DHT22;23776;51.592;7.180;2023-11-21T08:44:44;9.20;1.00
37956;DHT22;23776;51.592;7.180;2023-11-21T08:47:10;9.20;1.00
37956;DHT22;23776;51.592;7.180;2023-11-21T08:49:35;9.20;1.00
37956;DHT22;23776;51.592;7.180;2023-11-21T08:52:01;9.40;1.00
37956;DHT22;23776;51.592;7.180;2023-11-21T08:54:27;9.20;1.00
37956;DHT22;23776;51.592;7.180;2023-11-21T08:56:54;9.20;1.00
37956;DHT22;23776;51.592;7.180;2023-11-21T08:59:20;9.30;1.00
37956;DHT22;23776;51.592;7.180;2023-11-21T09:01:46;9.50;1.00
37956;DHT22;23776;51.592;7.180;2023-11-21T09:04:12;9.40;1.00
37956;DHT22;23776;51.592;7.180;2023-11-21T09:06:39;9.50;1.00
37956;DHT22;23776;51.592;7.180;2023-11-21T09:09:05;9.50;1.00
37956;DHT22;23776;51.592;7.180;2023-11-21T09:11:32;9.50;1.00
37956;DHT22;23776;51.592;7.180;2023-11-21T09:13:59;9.50;1.00
37956;DHT22;23776;51.592;7.180;2023-11-21T09:16:25;9.50;1.00
37956;DHT22;23776;51.592;7.180;2023-11-21T09:18:51;9.60;1.00
37956;DHT22;23776;51.592;7.180;2023-11-21T09:21:16;9.50;1.00
37956;DHT22;23776;51.592;7.180;2023-11-21T09:23:44;9.50;1.00
37956;DHT22;23776;51.592;7.180;2023-11-21T09:26:10;9.50;1.00
37956;DHT22;23776;51.592;7.180;2023-11-21T09:28:35;9.50;1.00
37956;DHT22;23776;51.592;7.180;2023-11-21T09:31:04;9.60;1.00
37956;DHT22;23776;51.592;7.180;2023-11-21T09:33:34;9.70;1.00
37956;DHT22;23776;51.592;7.180;2023-11-21T09:35:59;9.60;1.00
37956;DHT22;23776;51.592;7.180;2023-11-21T09:38:25;9.70;1.00
37956;DHT22;23776;51.592;7.180;2023-11-21T09:40:51;9.50;1.00
37956;DHT22;23776;51.592;7.180;2023-11-21T09:43:19;9.40;1.00
37956;DHT22;23776;51.592;7.180;2023-11-21T09:45:46;9.60;1.00
37956;DHT22;23776;51.592;7.180;2023-11-21T09:48:14;9.70;1.00
37956;DHT22;23776;51.592;7.180;2023-11-21T09:50:42;9.60;1.00
37956;DHT22;23776;51.592;7.180;2023-11-21T09:53:18;9.70;1.00
37956;DHT22;23776;51.592;7.180;2023-11-21T09:55:47;9.60;1.00
37956;DHT22;23776;51.592;7.180;2023-11-21T09:58:14;9.50;1.00
37956;DHT22;23776;51.592;7.180;2023-11-21T10:00:43;9.50;1.00
37956;DHT22;23776;51.592;7.180;2023-11-21T10:03:10;9.50;1.00
37956;DHT22;23776;51.592;7.180;2023-11-21T10:05:37;9.60;1.00
37956;DHT22;23776;51.592;7.180;2023-11-21T10:08:12;9.60;1.00
37956;DHT22;23776;51.592;7.180;2023-11-21T10:10:45;9.70;1.00
37956;DHT22;23776;51.592;7.180;2023-11-21T10:13:13;9.70;1.00
37956;DHT22;23776;51.592;7.180;2023-11-21T10:15:41;9.90;1.00
37956;DHT22;23776;51.592;7.180;2023-11-21T10:18:09;10.20;1.00
37956;DHT22;23776;51.592;7.180;2023-11-21T10:20:36;10.40;1.00
37956;DHT22;23776;51.592;7.180;2023-11-21T10:23:03;10.90;1.00
37956;DHT22;23776;51.592;7.180;2023-11-21T10:25:30;11.00;1.00
37956;DHT22;23776;51.592;7.180;2023-11-21T10:28:02;9.70;1.00
37956;DHT22;23776;51.592;7.180;2023-11-21T10:30:39;11.10;1.00
37956;DHT22;23776;51.592;7.180;2023-11-21T10:33:06;11.60;1.00
37956;DHT22;23776;51.592;7.180;2023-11-21T10:35:48;11.60;99.90
37956;DHT22;23776;51.592;7.180;2023-11-21T10:38:21;11.70;1.00
37956;DHT22;23776;51.592;7.180;2023-11-21T10:40:49;11.70;1.00
37956;DHT22;23776;51.592;7.180;2023-11-21T10:43:15;11.70;99.90
37956;DHT22;23776;51.592;7.180;2023-11-21T10:45:41;11.70;99.90
37956;DHT22;23776;51.592;7.180;2023-11-21T10:48:13;11.40;99.90
37956;DHT22;23776;51.592;7.180;2023-11-21T10:50:43;11.20;99.90
37956;DHT22;23776;51.592;7.180;2023-11-21T10:53:09;11.10;99.90
37956;DHT22;23776;51.592;7.180;2023-11-21T10:55:37;11.20;99.90
37956;DHT22;23776;51.592;7.180;2023-11-21T10:58:04;11.40;99.90
37956;DHT22;23776;51.592;7.180;2023-11-21T11:00:32;11.30;99.90
37956;DHT22;23776;51.592;7.180;2023-11-21T11:02:58;11.30;99.90
37956;DHT22;23776;51.592;7.180;2023-11-21T11:05:26;11.30;99.90
37956;DHT22;23776;51.592;7.180;2023-11-21T11:08:00;11.20;99.90
37956;DHT22;23776;51.592;7.180;2023-11-21T11:10:28;11.20;99.90
37956;DHT22;23776;51.592;7.180;2023-11-21T11:12:56;11.20;99.90
37956;DHT22;23776;51.592;7.180;2023-11-21T11:15:23;11.20;99.90
37956;DHT22;23776;51.592;7.180;2023-11-21T11:17:49;11.10;99.90
37956;DHT22;23776;51.592;7.180;2023-11-21T11:20:16;11.10;99.90
37956;DHT22;23776;51.592;7.180;2023-11-21T11:28:47;10.90;1.00
37956;DHT22;23776;51.592;7.180;2023-11-21T11:33:58;10.80;1.00
37956;DHT22;23776;51.592;7.180;2023-11-21T11:36:41;10.90;1.00
37956;DHT22;23776;51.592;7.180;2023-11-21T11:41:58;10.80;1.00
37956;DHT22;23776;51.592;7.180;2023-11-21T11:47:25;10.70;1.00
37956;DHT22;23776;51.592;7.180;2023-11-21T11:50:01;10.70;1.00
37956;DHT22;23776;51.592;7.180;2023-11-21T11:52:47;10.70;1.00
37956;DHT22;23776;51.592;7.180;2023-11-21T11:55:15;10.60;1.00
37956;DHT22;23776;51.592;7.180;2023-11-21T11:57:46;10.70;1.00
37956;DHT22;23776;51.592;7.180;2023-11-21T12:00:20;10.80;1.00
37956;DHT22;23776;51.592;7.180;2023-11-21T12:03:00;10.80;1.00
37956;DHT22;23776;51.592;7.180;2023-11-21T12:05:28;10.80;1.00
37956;DHT22;23776;51.592;7.180;2023-11-21T12:07:57;10.80;1.00
37956;DHT22;23776;51.592;7.180;2023-11-21T12:10:24;10.90;1.00
37956;DHT22;23776;51.592;7.180;2023-11-21T12:13:00;10.80;1.00
37956;DHT22;23776;51.592;7.180;2023-11-21T12:15:27;10.80;1.00
37956;DHT22;23776;51.592;7.180;2023-11-21T12:17:57;10.90;1.00
37956;DHT22;23776;51.592;7.180;2023-11-21T12:20:25;10.90;1.00
37956;DHT22;23776;51.592;7.180;2023-11-21T12:22:52;10.70;1.00
37956;DHT22;23776;51.592;7.180;2023-11-21T12:25:23;10.80;1.00
37956;DHT22;23776;51.592;7.180;2023-11-21T12:27:52;10.90;1.00
37956;DHT22;23776;51.592;7.180;2023-11-21T12:30:22;10.90;1.00
37956;DHT22;23776;51.592;7.180;2023-11-21T12:32:50;11.00;1.00
37956;DHT22;23776;51.592;7.180;2023-11-21T12:35:23;11.10;1.00
37956;DHT22;23776;51.592;7.180;2023-11-21T12:37:52;11.00;1.00
37956;DHT22;23776;51.592;7.180;2023-11-21T12:40:19;11.10;1.00
37956;DHT22;23776;51.592;7.180;2023-11-21T12:42:46;11.00;1.00
37956;DHT22;23776;51.592;7.180;2023-11-21T12:47:43;11.00;1.00
37956;DHT22;23776;51.592;7.180;2023-11-21T12:50:10;11.00;1.00
37956;DHT22;23776;51.592;7.180;2023-11-21T12:52:45;10.80;1.00
37956;DHT22;23776;51.592;7.180;2023-11-21T12:55:32;10.80;1.00
37956;DHT22;23776;51.592;7.180;2023-11-21T12:58:00;10.80;1.00
37956;DHT22;23776;51.592;7.180;2023-11-21T13:00:45;10.80;1.00
37956;DHT22;23776;51.592;7.180;2023-11-21T13:03:12;10.80;1.00
37956;DHT22;23776;51.592;7.180;2023-11-21T13:05:41;10.80;1.00
37956;DHT22;23776;51.592;7.180;2023-11-21T13:08:16;10.70;1.00
37956;DHT22;23776;51.592;7.180;2023-11-21T13:10:46;10.70;1.00
37956;DHT22;23776;51.592;7.180;2023-11-21T13:13:14;10.70;1.00
37956;DHT22;23776;51.592;7.180;2023-11-21T13:15:51;10.70;1.00
37956;DHT22;23776;51.592;7.180;2023-11-21T13:18:18;10.60;1.00
37956;DHT22;23776;51.592;7.180;2023-11-21T13:20:44;10.60;1.00
37956;DHT22;23776;51.592;7.180;2023-11-21T13:23:11;10.60;1.00
37956;DHT22;23776;51.592;7.180;2023-11-21T13:25:38;10.60;1.00
37956;DHT22;23776;51.592;7.180;2023-11-21T13:28:06;10.60;1.00
37956;DHT22;23776;51.592;7.180;2023-11-21T13:30:32;10.60;1.00
37956;DHT22;23776;51.592;7.180;2023-11-21T13:33:04;10.60;1.00
37956;DHT22;23776;51.592;7.180;2023-11-21T13:35:36;10.60;1.00
37956;DHT22;23776;51.592;7.180;2023-11-21T13:38:09;10.50;1.00
37956;DHT22;23776;51.592;7.180;2023-11-21T13:40:36;10.50;1.00
37956;DHT22;23776;51.592;7.180;2023-11-21T13:43:16;10.60;1.00
37956;DHT22;23776;51.592;7.180;2023-11-21T13:45:44;10.50;1.00
37956;DHT22;23776;51.592;7.180;2023-11-21T13:48:11;10.50;1.00
37956;DHT22;23776;51.592;7.180;2023-11-21T13:50:42;10.60;1.00
37956;DHT22;23776;51.592;7.180;2023-11-21T13:53:23;10.50;1.00
37956;DHT22;23776;51.592;7.180;2023-11-21T13:55:53;10.60;1.00
37956;DHT22;23776;51.592;7.180;2023-11-21T13:58:25;10.50;1.00
37956;DHT22;23776;51.592;7.180;2023-11-21T14:01:07;10.40;1.00
37956;DHT22;23776;51.592;7.180;2023-11-21T14:03:50;10.50;1.00
37956;DHT22;23776;51.592;7.180;2023-11-21T14:06:22;10.40;1.00
37956;DHT22;23776;51.592;7.180;2023-11-21T14:08:53;10.40;1.00
37956;DHT22;23776;51.592;7.180;2023-11-21T14:11:22;10.40;1.00
37956;DHT22;23776;51.592;7.180;2023-11-21T14:13:47;10.40;1.00
37956;DHT22;23776;51.592;7.180;2023-11-21T14:16:14;10.50;1.00
37956;DHT22;23776;51.592;7.180;2023-11-21T14:18:42;10.40;1.00
37956;DHT22;23776;51.592;7.180;2023-11-21T14:21:18;10.40;1.00
37956;DHT22;23776;51.592;7.180;2023-11-21T14:23:44;10.50;1.00
37956;DHT22;23776;51.592;7.180;2023-11-21T14:26:11;10.40;1.00
37956;DHT22;23776;51.592;7.180;2023-11-21T14:28:43;10.50;1.00
37956;DHT22;23776;51.592;7.180;2023-11-21T14:31:09;10.80;1.00
37956;DHT22;23776;51.592;7.180;2023-11-21T14:33:40;10.50;1.00
37956;DHT22;23776;51.592;7.180;2023-11-21T14:36:06;10.50;1.00
37956;DHT22;23776;51.592;7.180;2023-11-21T14:38:38;10.50;1.00
37956;DHT22;23776;51.592;7.180;2023-11-21T14:41:08;10.40;1.00
37956;DHT22;23776;51.592;7.180;2023-11-21T14:43:35;10.40;99.90
37956;DHT22;23776;51.592;7.180;2023-11-21T14:46:01;11.10;99.90
37956;DHT22;23776;51.592;7.180;2023-11-21T14:48:28;10.30;99.90
37956;DHT22;23776;51.592;7.180;2023-11-21T14:51:17;10.20;99.90
37956;DHT22;23776;51.592;7.180;2023-11-21T14:53:56;10.20;99.90
37956;DHT22;23776;51.592;7.180;2023-11-21T14:56:26;10.10;99.90
37956;DHT22;23776;51.592;7.180;2023-11-21T14:58:57;10.10;99.90
37956;DHT22;23776;51.592;7.180;2023-11-21T15:01:24;10.10;99.90
37956;DHT22;23776;51.592;7.180;2023-11-21T15:04:08;10.00;99.90
37956;DHT22;23776;51.592;7.180;2023-11-21T15:06:40;10.00;99.90
37956;DHT22;23776;51.592;7.180;2023-11-21T15:09:08;9.90;99.90
37956;DHT22;23776;51.592;7.180;2023-11-21T15:11:53;9.80;99.90
37956;DHT22;23776;51.592;7.180;2023-11-21T15:14:23;9.70;99.90
37956;DHT22;23776;51.592;7.180;2023-11-21T15:16:51;9.70;99.90
37956;DHT22;23776;51.592;7.180;2023-11-21T15:19:18;9.70;99.90
37956;DHT22;23776;51.592;7.180;2023-11-21T15:21:50;9.70;99.90
37956;DHT22;23776;51.592;7.180;2023-11-21T15:24:16;9.70;99.90
37956;DHT22;23776;51.592;7.180;2023-11-21T15:26:42;9.70;99.90
37956;DHT22;23776;51.592;7.180;2023-11-21T15:29:08;9.70;99.90
37956;DHT22;23776;51.592;7.180;2023-11-21T15:31:34;9.60;99.90
37956;DHT22;23776;51.592;7.180;2023-11-21T15:34:01;9.50;1.00
37956;DHT22;23776;51.592;7.180;2023-11-21T15:36:27;9.60;1.00
37956;DHT22;23776;51.592;7.180;2023-11-21T15:38:53;9.50;99.90
37956;DHT22;23776;51.592;7.180;2023-11-21T15:41:19;9.60;1.00
37956;DHT22;23776;51.592;7.180;2023-11-21T15:43:45;9.60;99.90
37956;DHT22;23776;51.592;7.180;2023-11-21T15:46:13;9.50;99.90
37956;DHT22;23776;51.592;7.180;2023-11-21T15:48:38;9.50;99.90
37956;DHT22;23776;51.592;7.180;2023-11-21T15:51:09;9.40;1.00
37956;DHT22;23776;51.592;7.180;2023-11-21T15:53:38;9.40;1.00
37956;DHT22;23776;51.592;7.180;2023-11-21T15:56:06;9.30;1.00
37956;DHT22;23776;51.592;7.180;2023-11-21T15:58:36;9.30;1.00
37956;DHT22;23776;51.592;7.180;2023-11-21T16:01:01;9.20;1.00
37956;DHT22;23776;51.592;7.180;2023-11-21T16:03:28;9.10;1.00
37956;DHT22;23776;51.592;7.180;2023-11-21T16:05:56;9.00;1.00
37956;DHT22;23776;51.592;7.180;2023-11-21T16:08:21;9.00;1.00
37956;DHT22;23776;51.592;7.180;2023-11-21T16:10:47;9.00;1.00
37956;DHT22;23776;51.592;7.180;2023-11-21T16:13:14;8.90;1.00